createdAt,value
2022-08-22T00:04:26.331Z,97038.91
2022-08-22T00:15:58.085Z,97037.63
2022-08-22T02:10:42.989Z,97032.19
2022-08-22T02:15:46.524Z,97032.91
2022-08-22T02:31:16.906Z,97037.66
2022-08-22T04:58:25.549Z,97052.19
2022-08-22T05:01:27.456Z,97055.38
2022-08-22T05:04:19.816Z,97059.94
2022-08-22T05:07:26.233Z,97057.09
2022-08-22T05:10:24.528Z,97062.94
2022-08-22T05:13:18.049Z,97067.72
2022-08-22T05:16:14.029Z,97063.59
2022-08-22T05:20:23.718Z,97062.66
2022-08-22T05:26:56.872Z,97062.72
2022-08-22T05:30:29.644Z,97079.22
2022-08-22T05:33:21.024Z,97068.09
2022-08-22T05:36:11.643Z,97071.59
2022-08-22T05:39:29.906Z,97062.94
2022-08-22T05:42:27.160Z,97072.06
2022-08-22T05:45:14.627Z,97075.78
2022-08-22T05:48:13.256Z,97073.31
2022-08-22T05:51:21.442Z,97074.38
2022-08-22T05:54:15.171Z,97077.28
2022-08-22T05:57:19.004Z,97088.03
2022-08-22T06:00:19.109Z,97083.22
2022-08-22T06:03:57.166Z,97078.22
2022-08-22T06:06:43.903Z,97081.28
2022-08-22T06:09:38.558Z,97082.47
2022-08-22T06:12:44.679Z,97083.09
2022-08-22T06:16:02.013Z,97089.44
2022-08-22T06:18:52.909Z,97098.06
2022-08-22T06:21:41.858Z,97089.56
2022-08-22T06:24:28.611Z,97099.03
2022-08-22T06:27:17.175Z,97096.56
2022-08-22T06:30:05.241Z,97089.94
2022-08-22T06:32:59.902Z,97096.72
2022-08-22T06:36:09.932Z,97092.16
2022-08-22T06:39:30.204Z,97089.88
2022-08-22T06:42:22.755Z,97094.19
2022-08-22T06:45:12.989Z,97095.81
2022-08-22T06:48:06.272Z,97098.06
2022-08-22T06:50:56.940Z,97088.94
2022-08-22T06:53:49.884Z,97089.56
2022-08-22T06:56:40.885Z,97098.44
2022-08-22T06:59:30.135Z,97100.66
2022-08-22T07:02:25.363Z,97090.75
2022-08-22T07:05:19.182Z,97104.78
2022-08-22T07:08:09.255Z,97099.41
2022-08-22T07:11:16.101Z,97097.28
2022-08-22T07:14:06.001Z,97108.03
2022-08-22T07:17:04.671Z,97105.97
2022-08-22T07:19:59.587Z,97108.41
2022-08-22T07:22:54.231Z,97102.00
2022-08-22T07:25:51.830Z,97106.91
2022-08-22T07:28:50.909Z,97101.53
2022-08-22T07:31:54.411Z,97104.81
2022-08-22T07:34:51.116Z,97099.19
2022-08-22T07:37:47.023Z,97099.56
2022-08-22T07:40:50.829Z,97104.47
2022-08-22T07:43:45.533Z,97099.72
2022-08-22T07:46:43.180Z,97097.97
2022-08-22T07:49:49.625Z,97108.06
2022-08-22T07:52:44.354Z,97105.47
2022-08-22T07:55:31.433Z,97094.38
2022-08-22T07:58:45.935Z,97096.16
2022-08-22T08:02:14.317Z,97085.06
2022-08-22T08:05:11.367Z,97089.06
2022-08-22T08:08:07.827Z,97087.09
2022-08-22T08:11:09.101Z,97083.81
2022-08-22T08:14:14.036Z,97085.97
2022-08-22T08:17:10.743Z,97083.16
2022-08-22T08:20:44.579Z,97089.00
2022-08-22T08:23:50.970Z,97082.44
2022-08-22T08:27:13.210Z,97094.03
2022-08-22T08:30:13.380Z,97086.38
2022-08-22T08:33:25.738Z,97091.41
2022-08-22T08:36:23.527Z,97092.69
2022-08-22T08:39:38.277Z,97088.78
2022-08-22T08:43:24.502Z,97084.56
2022-08-22T08:46:55.454Z,97083.72
2022-08-22T08:50:07.705Z,97073.31
2022-08-22T08:53:38.459Z,97080.66
2022-08-22T08:57:03.563Z,97074.47
2022-08-22T09:00:38.446Z,97077.75
2022-08-22T09:03:41.182Z,97073.63
2022-08-22T09:07:07.043Z,97072.97
2022-08-22T09:10:29.389Z,97073.13
2022-08-22T09:13:53.716Z,97084.94
2022-08-22T09:17:39.148Z,97068.56
2022-08-22T09:21:13.635Z,97074.72
2022-08-22T09:24:28.507Z,97080.50
2022-08-22T09:27:29.401Z,97078.69
2022-08-22T09:30:27.534Z,97075.91
2022-08-22T09:33:23.673Z,97086.53
2022-08-22T09:37:01.644Z,97078.75
2022-08-22T09:48:17.806Z,97076.22
2022-08-22T09:55:25.237Z,97078.22
2022-08-22T10:02:58.043Z,97079.59
2022-08-22T10:17:12.605Z,97086.25
2022-08-22T10:20:14.792Z,97085.78
2022-08-22T10:23:33.235Z,97080.38
2022-08-22T10:30:55.029Z,97088.97
2022-08-22T10:34:04.748Z,97082.75
2022-08-22T10:37:23.720Z,97087.41
2022-08-22T10:40:17.799Z,97084.75
2022-08-22T10:43:13.752Z,97088.03
2022-08-22T10:46:17.873Z,97075.31
2022-08-22T10:49:15.374Z,97089.19
2022-08-22T10:52:20.429Z,97080.81
2022-08-22T10:55:29.136Z,97070.81
2022-08-22T10:58:30.581Z,97075.69
2022-08-22T11:04:53.893Z,97077.97
2022-08-22T11:08:18.433Z,97078.81
2022-08-22T11:11:32.594Z,97081.84
2022-08-22T11:15:34.721Z,97077.53
2022-08-22T11:19:30.401Z,97081.06
2022-08-22T11:22:36.391Z,97076.47
2022-08-22T11:26:46.735Z,97088.72
2022-08-22T11:33:37.392Z,97090.38
2022-08-22T11:36:53.117Z,97084.16
2022-08-22T11:39:45.830Z,97079.28
2022-08-22T11:42:47.474Z,97085.28
2022-08-22T11:45:47.553Z,97079.59
2022-08-22T11:48:53.092Z,97075.25
2022-08-22T11:56:23.031Z,97070.38
2022-08-22T11:59:14.235Z,97067.69
2022-08-22T12:02:03.918Z,97070.38
2022-08-22T12:04:58.984Z,97074.75
2022-08-22T12:07:53.666Z,97075.25
2022-08-22T12:10:58.165Z,97067.13
2022-08-22T12:14:06.539Z,97059.50
2022-08-22T12:20:46.330Z,97051.66
2022-08-22T12:24:06.245Z,97048.41
2022-08-22T12:27:07.847Z,97061.19
2022-08-22T12:29:57.629Z,97049.19
2022-08-22T12:33:26.621Z,97051.94
2022-08-22T12:36:32.768Z,97050.00
2022-08-22T12:39:53.786Z,97050.00
2022-08-22T12:43:06.525Z,97040.22
2022-08-22T12:46:15.132Z,97037.75
2022-08-22T12:49:13.689Z,97036.41
2022-08-22T12:52:22.390Z,97040.72
2022-08-22T12:55:45.912Z,97034.19
2022-08-22T12:58:58.187Z,97020.56
2022-08-22T13:01:50.387Z,97017.84
2022-08-22T13:04:45.798Z,97006.72
2022-08-22T13:07:35.258Z,97006.38
2022-08-22T13:10:41.817Z,97009.91
2022-08-22T13:13:38.827Z,97004.72
2022-08-22T13:16:38.231Z,96997.63
2022-08-22T13:19:32.037Z,96996.25
2022-08-22T13:22:25.636Z,97004.38
2022-08-22T13:25:25.530Z,96997.28
2022-08-22T13:28:13.549Z,96992.91
2022-08-22T13:31:01.220Z,96987.16
2022-08-22T13:33:48.280Z,96983.59
2022-08-22T13:36:51.724Z,96991.44
2022-08-22T13:39:43.060Z,96998.19
2022-08-22T13:42:32.338Z,96983.75
2022-08-22T13:45:25.047Z,96990.78
2022-08-22T13:48:14.192Z,96985.31
2022-08-22T13:51:08.073Z,96978.44
2022-08-22T13:54:11.205Z,96975.41
2022-08-22T13:57:24.615Z,96979.19
2022-08-22T14:00:30.281Z,96974.25
2022-08-22T14:03:23.076Z,96977.22
2022-08-22T14:06:37.495Z,96981.22
2022-08-22T14:09:41.551Z,96981.47
2022-08-22T14:12:49.912Z,96977.38
2022-08-22T14:15:45.465Z,96987.69
2022-08-22T14:18:45.428Z,96979.22
2022-08-22T14:21:40.669Z,96984.41
2022-08-22T14:24:45.408Z,96969.41
2022-08-22T14:27:45.425Z,96974.53
2022-08-22T14:30:38.675Z,96973.44
2022-08-22T14:33:28.391Z,96977.50
2022-08-22T14:36:25.035Z,96976.41
2022-08-22T14:39:29.150Z,96973.41
2022-08-22T14:42:22.989Z,96970.69
2022-08-22T14:45:16.855Z,96973.09
2022-08-22T14:48:30.008Z,96974.72
2022-08-22T14:51:22.044Z,96975.56
2022-08-22T14:54:21.329Z,96979.13
2022-08-22T14:57:19.711Z,96973.66
2022-08-22T15:00:12.183Z,96976.41
2022-08-22T15:03:08.718Z,96977.19
2022-08-22T15:05:57.614Z,96981.56
2022-08-22T15:08:46.284Z,96982.66
2022-08-22T15:11:33.528Z,96980.00
2022-08-22T15:14:24.436Z,96978.94
2022-08-22T15:17:11.697Z,96974.06
2022-08-22T15:20:22.714Z,96981.69
2022-08-22T15:23:21.941Z,96990.97
2022-08-22T15:26:13.199Z,96984.19
2022-08-22T15:29:22.472Z,96984.47
2022-08-22T15:32:10.395Z,96991.31
2022-08-22T15:35:08.174Z,96990.50
2022-08-22T15:38:08.463Z,96994.63
2022-08-22T16:05:34.032Z,96988.97
2022-08-22T16:09:02.989Z,96994.63
2022-08-22T16:12:15.123Z,96989.88
2022-08-22T16:15:46.984Z,96999.53
2022-08-22T16:51:18.855Z,97014.09
2022-08-22T16:54:12.987Z,97014.50
2022-08-22T16:57:07.772Z,97018.09
2022-08-22T17:04:09.761Z,97018.47
2022-08-22T17:07:22.286Z,97019.59
2022-08-22T17:10:35.161Z,97016.91
2022-08-22T17:22:10.631Z,97013.47
2022-08-22T17:26:05.763Z,97031.91
2022-08-22T17:29:17.196Z,97031.69
2022-08-22T17:43:55.040Z,97031.72
2022-08-22T17:48:27.131Z,97041.75
2022-08-22T17:51:02.311Z,97041.53
2022-08-22T17:54:01.380Z,97049.13
2022-08-22T17:57:24.450Z,97055.38
2022-08-22T18:00:33.992Z,97044.50
2022-08-22T18:03:31.983Z,97050.50
2022-08-22T18:06:27.731Z,97052.41
2022-08-22T18:09:42.412Z,97039.06
2022-08-22T18:12:46.620Z,97056.19
2022-08-22T18:15:58.393Z,97047.53
2022-08-22T18:19:06.406Z,97057.81
2022-08-22T18:22:12.700Z,97057.56
2022-08-22T18:25:26.607Z,97057.03
2022-08-22T18:28:34.230Z,97051.88
2022-08-22T18:31:46.010Z,97054.91
2022-08-22T18:35:06.710Z,97052.97
2022-08-22T18:38:19.693Z,97059.81
2022-08-22T18:41:28.531Z,97060.06
2022-08-22T18:44:42.991Z,97056.81
2022-08-22T18:47:36.593Z,97067.97
2022-08-22T18:51:06.167Z,97078.00
